createdAt,value
2023-02-18T00:00:00.667Z,4.09
2023-02-18T00:05:00.687Z,4.59
2023-02-18T00:10:00.672Z,3.82
2023-02-18T00:15:00.555Z,3.75
2023-02-18T00:20:00.655Z,3.92
2023-02-18T00:25:00.612Z,3.89
2023-02-18T00:30:00.734Z,3.79
2023-02-18T00:35:00.719Z,3.54
2023-02-18T00:40:00.643Z,3.12
2023-02-18T00:45:00.524Z,4.30
2023-02-18T00:50:00.752Z,3.59
2023-02-18T00:55:00.733Z,3.78
2023-02-18T01:00:00.715Z,3.44
2023-02-18T01:05:00.595Z,3.91
2023-02-18T01:10:00.717Z,4.00
2023-02-18T01:15:00.552Z,4.22
2023-02-18T01:20:00.678Z,3.30
2023-02-18T01:25:00.643Z,3.63
2023-02-18T01:30:00.740Z,2.79
2023-02-18T01:35:00.638Z,2.29
2023-02-18T01:40:00.638Z,1.85
2023-02-18T01:45:00.546Z,2.27
2023-02-18T01:50:00.785Z,1.66
2023-02-18T01:55:00.621Z,1.50
2023-02-18T02:00:00.593Z,1.14
2023-02-18T02:05:00.570Z,1.59
2023-02-18T02:10:01.521Z,1.57
2023-02-18T02:15:00.531Z,1.93
2023-02-18T02:20:00.619Z,1.60
2023-02-18T02:25:00.796Z,9.44
2023-02-18T02:30:00.570Z,5.21
2023-02-18T02:35:02.492Z,3.45
2023-02-18T02:40:00.616Z,8.28
2023-02-18T02:45:00.668Z,12.16
2023-02-18T02:50:00.617Z,4.04
2023-02-18T02:55:00.853Z,2.31
2023-02-18T03:00:00.559Z,1.58
2023-02-18T03:05:00.677Z,1.29
2023-02-18T03:10:00.636Z,1.20
2023-02-18T03:15:00.619Z,1.22
2023-02-18T03:20:00.617Z,1.13
2023-02-18T03:25:00.675Z,1.15
2023-02-18T03:30:00.696Z,1.42
2023-02-18T03:35:03.160Z,1.70
2023-02-18T03:40:00.738Z,1.10
2023-02-18T03:45:00.702Z,1.62
2023-02-18T03:50:00.687Z,0.97
2023-02-18T03:55:00.849Z,1.38
2023-02-18T04:00:01.372Z,1.29
2023-02-18T04:05:00.563Z,1.94
2023-02-18T04:10:00.684Z,1.68
2023-02-18T04:15:00.701Z,1.29
2023-02-18T04:20:00.653Z,1.45
2023-02-18T04:25:00.723Z,1.66
2023-02-18T04:30:00.754Z,1.37
2023-02-18T04:35:00.525Z,1.29
2023-02-18T04:40:00.709Z,1.11
2023-02-18T04:45:00.725Z,0.98
2023-02-18T04:50:00.749Z,0.82
2023-02-18T04:55:00.652Z,1.43
2023-02-18T05:00:00.953Z,2.20
2023-02-18T05:05:00.540Z,2.84
2023-02-18T05:10:00.724Z,2.61
2023-02-18T05:15:01.435Z,3.90
2023-02-18T05:20:00.520Z,3.98
2023-02-18T05:25:00.789Z,8.90
2023-02-18T05:30:00.749Z,21.12
2023-02-18T05:35:00.530Z,9.92
2023-02-18T05:40:00.564Z,4.41
2023-02-18T05:45:00.857Z,3.08
2023-02-18T05:50:00.532Z,3.06
2023-02-18T05:55:00.762Z,2.86
2023-02-18T06:00:00.648Z,2.45
2023-02-18T06:05:00.622Z,2.36
2023-02-18T06:10:00.540Z,2.30
2023-02-18T06:15:00.884Z,2.27
2023-02-18T06:20:00.515Z,1.97
2023-02-18T06:25:00.576Z,1.82
2023-02-18T06:30:00.819Z,1.52
2023-02-18T06:35:00.559Z,1.33
2023-02-18T06:40:00.654Z,0.87
2023-02-18T06:45:00.868Z,0.89
2023-02-18T06:50:00.507Z,1.28
2023-02-18T06:55:00.608Z,0.99
2023-02-18T07:00:00.683Z,1.50
2023-02-18T07:05:00.533Z,1.46
2023-02-18T07:10:04.828Z,1.20
2023-02-18T07:15:00.789Z,1.30
2023-02-18T07:20:00.579Z,1.49
2023-02-18T07:25:00.507Z,1.29
2023-02-18T07:30:00.754Z,1.23
2023-02-18T07:35:00.505Z,1.16
2023-02-18T07:40:00.599Z,0.86
2023-02-18T07:45:00.830Z,1.24
2023-02-18T07:50:00.548Z,1.34
2023-02-18T07:55:00.629Z,1.65
2023-02-18T08:00:00.730Z,1.98
2023-02-18T08:05:00.680Z,0.97
2023-02-18T08:10:00.541Z,1.14
2023-02-18T08:15:01.099Z,1.36
2023-02-18T08:20:00.533Z,1.65
2023-02-18T08:25:00.665Z,1.68
2023-02-18T08:30:00.826Z,2.89
2023-02-18T08:35:03.111Z,1.54
2023-02-18T08:40:00.516Z,2.20
2023-02-18T08:45:00.842Z,1.64
2023-02-18T08:50:00.525Z,1.45
2023-02-18T08:55:00.618Z,1.58
2023-02-18T09:00:00.736Z,1.32
2023-02-18T09:05:00.546Z,1.17
2023-02-18T09:10:00.825Z,0.89
2023-02-18T09:15:00.781Z,1.32
2023-02-18T09:20:00.629Z,1.03
2023-02-18T09:25:00.540Z,0.90
2023-02-18T09:30:00.805Z,1.21
2023-02-18T09:35:00.517Z,1.05
2023-02-18T09:40:00.723Z,1.77
2023-02-18T09:45:00.970Z,1.61
2023-02-18T09:50:00.800Z,1.97
2023-02-18T09:55:00.510Z,2.16
2023-02-18T10:00:00.813Z,2.17
2023-02-18T10:05:00.517Z,2.94
2023-02-18T10:10:00.663Z,2.53
2023-02-18T10:15:00.743Z,3.28
2023-02-18T10:20:01.504Z,3.87
2023-02-18T10:25:00.545Z,5.75
2023-02-18T10:30:00.789Z,5.57
2023-02-18T10:35:00.594Z,7.50
2023-02-18T10:40:01.056Z,8.33
2023-02-18T10:45:00.692Z,8.50
2023-02-18T10:50:02.998Z,7.64
2023-02-18T10:55:00.600Z,7.01
2023-02-18T11:00:00.806Z,7.41
2023-02-18T11:05:00.633Z,7.07
2023-02-18T11:10:00.682Z,8.40
2023-02-18T11:15:00.624Z,8.64
2023-02-18T11:20:00.610Z,8.19
2023-02-18T11:25:00.670Z,8.06
2023-02-18T11:30:00.733Z,8.93
2023-02-18T11:35:00.531Z,8.52
2023-02-18T11:40:00.661Z,7.03
2023-02-18T11:45:00.602Z,8.20
2023-02-18T11:50:05.051Z,8.49
2023-02-18T11:55:00.730Z,7.38
2023-02-18T12:00:00.651Z,8.60
2023-02-18T12:05:00.590Z,8.06
2023-02-18T12:10:00.681Z,7.26
2023-02-18T12:15:00.626Z,8.16
2023-02-18T12:20:00.614Z,7.00
2023-02-18T12:25:00.692Z,6.79
2023-02-18T12:30:00.754Z,6.29
2023-02-18T12:35:03.708Z,6.71
2023-02-18T12:40:00.555Z,6.68
2023-02-18T12:45:00.662Z,5.92
2023-02-18T12:50:00.792Z,10.56
2023-02-18T12:55:00.686Z,5.51
2023-02-18T13:00:00.584Z,6.59
2023-02-18T13:05:00.673Z,5.25
2023-02-18T13:10:00.522Z,5.55
2023-02-18T13:15:00.754Z,4.86
2023-02-18T13:20:00.633Z,5.24
2023-02-18T13:25:02.380Z,5.11
2023-02-18T13:30:00.653Z,4.94
2023-02-18T13:35:03.750Z,6.52
2023-02-18T13:40:00.518Z,6.25
2023-02-18T13:45:01.800Z,6.62
2023-02-18T13:50:00.807Z,5.89
2023-02-18T13:55:00.686Z,6.62
2023-02-18T14:00:00.649Z,6.97
2023-02-18T14:05:00.891Z,6.86
2023-02-18T14:10:01.354Z,6.69
2023-02-18T14:15:00.630Z,5.91
2023-02-18T14:20:00.658Z,6.94
2023-02-18T14:25:00.550Z,6.86
2023-02-18T14:30:00.778Z,6.92
2023-02-18T14:35:00.544Z,6.85
2023-02-18T14:40:00.671Z,6.17
2023-02-18T14:45:00.788Z,7.14
2023-02-18T14:50:00.539Z,6.23
2023-02-18T14:55:00.593Z,7.08
2023-02-18T15:00:00.686Z,7.49
2023-02-18T15:05:00.516Z,7.82
2023-02-18T15:10:00.668Z,9.03
2023-02-18T15:15:00.653Z,7.93
2023-02-18T15:20:00.679Z,7.75
2023-02-18T15:25:00.522Z,7.56
2023-02-18T15:30:00.737Z,8.22
2023-02-18T15:35:00.520Z,8.77
2023-02-18T15:40:00.739Z,8.25
2023-02-18T15:45:00.831Z,8.11
2023-02-18T15:50:01.202Z,7.00
2023-02-18T15:55:00.515Z,7.52
2023-02-18T16:00:00.746Z,40.67
2023-02-18T16:05:00.546Z,22.18
2023-02-18T16:10:00.641Z,36.98
2023-02-18T16:15:00.699Z,18.97
2023-02-18T16:20:05.654Z,17.80
2023-02-18T16:25:01.828Z,11.60
2023-02-18T16:30:01.172Z,7.58
2023-02-18T16:35:04.029Z,9.94
2023-02-18T16:40:00.599Z,10.32
2023-02-18T16:45:00.699Z,20.23
2023-02-18T16:50:00.532Z,10.67
2023-02-18T16:55:00.584Z,10.46
2023-02-18T17:00:00.751Z,9.20
2023-02-18T17:05:00.547Z,22.44
2023-02-18T17:10:00.830Z,19.85
2023-02-18T17:15:00.743Z,14.78
2023-02-18T17:20:00.648Z,14.65
2023-02-18T17:25:00.634Z,15.55
2023-02-18T17:30:00.664Z,13.40
2023-02-18T17:35:03.876Z,10.40
2023-02-18T17:40:01.185Z,10.96
2023-02-18T17:45:00.803Z,4.98
2023-02-18T17:50:00.821Z,4.83
2023-02-18T17:55:00.672Z,17.70
2023-02-18T18:00:01.147Z,9.08
2023-02-18T18:05:00.569Z,11.98
2023-02-18T18:10:00.657Z,10.43
2023-02-18T18:15:00.650Z,6.21
2023-02-18T18:20:00.660Z,3.59
2023-02-18T18:25:00.616Z,5.34
2023-02-18T18:30:00.954Z,4.12
2023-02-18T18:35:00.543Z,3.26
2023-02-18T18:40:00.626Z,4.76
2023-02-18T18:45:00.802Z,3.60
2023-02-18T18:50:00.547Z,3.54
2023-02-18T18:55:00.570Z,3.79
2023-02-18T19:00:00.773Z,4.63
2023-02-18T19:05:00.533Z,4.17
2023-02-18T19:10:00.751Z,4.01
2023-02-18T19:15:00.729Z,4.17
2023-02-18T19:20:00.597Z,3.29
2023-02-18T19:25:00.512Z,3.09
2023-02-18T19:30:00.775Z,3.83
2023-02-18T19:35:00.528Z,3.66
2023-02-18T19:40:00.576Z,3.86
2023-02-18T19:45:00.991Z,5.52
2023-02-18T19:50:02.373Z,3.88
2023-02-18T19:55:00.524Z,4.22
2023-02-18T20:00:00.824Z,3.58
2023-02-18T20:05:00.540Z,3.43
2023-02-18T20:10:00.713Z,4.54
2023-02-18T20:15:00.856Z,4.19
2023-02-18T20:20:00.661Z,3.58
2023-02-18T20:25:00.631Z,3.87
2023-02-18T20:30:00.582Z,4.17
2023-02-18T20:35:04.237Z,4.57
2023-02-18T20:40:00.687Z,4.15
2023-02-18T20:45:00.610Z,4.68
2023-02-18T20:50:00.476Z,3.43
2023-02-18T20:55:01.151Z,3.67
2023-02-18T21:00:00.493Z,2.92
2023-02-18T21:05:00.527Z,3.13
2023-02-18T21:10:00.762Z,3.05
2023-02-18T21:15:00.494Z,3.12
2023-02-18T21:20:00.580Z,3.17
2023-02-18T21:25:00.601Z,2.88
2023-02-18T21:30:00.577Z,3.00
2023-02-18T21:35:03.830Z,2.83
2023-02-18T21:40:00.654Z,3.71
2023-02-18T21:45:01.604Z,3.41
2023-02-18T21:50:00.493Z,2.82
2023-02-18T21:55:00.686Z,3.05
2023-02-18T22:00:11.400Z,3.02
2023-02-18T22:05:00.598Z,2.81
2023-02-18T22:10:00.622Z,3.00
2023-02-18T22:15:00.515Z,3.16
2023-02-18T22:20:00.470Z,3.03
2023-02-18T22:25:00.895Z,3.30
2023-02-18T22:30:00.594Z,3.48
2023-02-18T22:35:04.013Z,3.99
2023-02-18T22:40:00.684Z,4.34
2023-02-18T22:45:00.644Z,4.14
2023-02-18T22:50:00.454Z,4.18
2023-02-18T22:55:00.702Z,4.22
2023-02-18T23:00:00.615Z,4.67
2023-02-18T23:05:00.637Z,4.36
2023-02-18T23:10:00.858Z,5.46
2023-02-18T23:15:00.478Z,4.29
2023-02-18T23:20:00.536Z,4.06
2023-02-18T23:25:00.999Z,3.67
2023-02-18T23:30:00.588Z,3.99
2023-02-18T23:35:04.067Z,4.65
2023-02-18T23:40:00.681Z,4.37
2023-02-18T23:45:00.644Z,4.75
2023-02-18T23:50:00.472Z,4.84
2023-02-18T23:55:00.653Z,4.70
